Time;durP1;ratioP1;P1;durP2;ratioP2;P2;SDS_P1;SDS_P2;PMS_P1;PMS_P2;Temp;Humidity;BMP_temperature;BMP_pressure;BME280_temperature;BME280_humidity;BME280_pressure;Samples;Min_cycle;Max_cycle;Signal;HPM_P1;HPM_P2
2023/10/30 00:00:27;;;;;;;2.97;1.17;;;;;;;-146.27;74.61;83055.19;5030590;28;20512;-75
2023/10/30 00:02:53;;;;;;;4.15;1.10;;;;;;;-146.27;75.63;83151.63;5030579;28;20112;-75
2023/10/30 00:05:18;;;;;;;3.08;1.15;;;;;;;-146.27;75.13;83115.47;5027719;28;20401;-75
2023/10/30 00:07:44;;;;;;;3.63;1.00;;;;;;;-146.27;74.80;83099.38;5030026;28;20021;-74
2023/10/30 00:10:09;;;;;;;3.15;0.90;;;;;;;-146.27;75.51;83175.72;5034481;28;20034;-75
2023/10/30 00:12:35;;;;;;;3.88;1.30;;;;;;;-146.27;74.89;83129.53;5029272;28;20065;-75
2023/10/30 00:15:03;;;;;;;1.90;0.77;;;;;;;-146.27;74.77;83097.38;5027301;28;20116;-75
2023/10/30 00:17:30;;;;;;;2.45;0.60;;;;;;;-146.27;75.29;83159.66;5014504;28;20073;-75
2023/10/30 00:19:56;;;;;;;3.85;0.90;;;;;;;-146.27;74.76;83075.28;5019503;28;20041;-75
2023/10/30 00:22:21;;;;;;;4.72;0.95;;;;;;;-146.27;75.27;83103.41;5024857;28;20116;-75
2023/10/30 00:24:46;;;;;;;6.20;1.90;;;;;;;-146.27;75.50;83135.53;5030155;28;20382;-75
2023/10/30 00:27:12;;;;;;;7.68;1.23;;;;;;;-146.27;76.40;83147.59;5026709;28;20053;-74
2023/10/30 00:29:40;;;;;;;5.97;1.50;;;;;;;-146.27;77.02;83159.66;5028464;28;20112;-74
2023/10/30 00:32:09;;;;;;;6.07;1.33;;;;;;;-146.27;76.07;83159.66;5031821;28;20057;-74
2023/10/30 00:34:35;;;;;;;6.20;2.50;;;;;;;-146.27;76.25;83159.66;5031602;28;20074;-75
2023/10/30 00:37:00;;;;;;;4.40;0.82;;;;;;;-146.27;75.40;83103.41;5044466;28;20024;-75
2023/10/30 00:39:27;;;;;;;4.72;1.00;;;;;;;-146.27;75.34;83125.50;5035036;28;20622;-74
2023/10/30 00:41:53;;;;;;;2.85;0.70;;;;;;;-146.27;75.88;83165.69;5034143;28;20033;-73
2023/10/30 00:44:18;;;;;;;3.65;0.80;;;;;;;-146.27;76.08;83149.63;5048572;28;20405;-75
2023/10/30 00:46:43;;;;;;;4.63;0.90;;;;;;;-146.27;76.40;83191.81;5042159;28;20029;-75
2023/10/30 00:49:09;;;;;;;4.80;1.10;;;;;;;-146.27;77.25;83187.78;5035608;28;20053;-75
2023/10/30 00:51:34;;;;;;;3.13;0.80;;;;;;;-146.27;77.12;83153.63;5027042;28;20481;-75
2023/10/30 00:54:00;;;;;;;4.72;1.00;;;;;;;-146.27;76.58;83159.66;5036581;28;20052;-75
2023/10/30 00:56:25;;;;;;;5.65;1.00;;;;;;;-146.27;77.05;83193.81;5032178;28;20037;-75
2023/10/30 00:58:50;;;;;;;16.20;1.42;;;;;;;-146.27;77.62;83175.72;5036338;28;20434;-75
2023/10/30 01:01:17;;;;;;;6.78;1.20;;;;;;;-146.27;78.79;83227.97;5029301;28;20390;-75
2023/10/30 01:03:44;;;;;;;8.48;1.42;;;;;;;-146.27;77.40;83167.69;5032320;28;20029;-75
2023/10/30 01:06:09;;;;;;;7.97;1.65;;;;;;;-146.27;77.61;83167.69;5027258;28;20025;-75
2023/10/30 01:08:35;;;;;;;4.30;1.48;;;;;;;-146.27;78.51;83211.91;5024155;28;20056;-75
2023/10/30 01:11:00;;;;;;;11.68;1.45;;;;;;;-146.27;78.49;83181.75;5026259;28;20029;-74
2023/10/30 01:13:26;;;;;;;7.15;1.70;;;;;;;-146.27;78.75;83183.78;5025876;28;21034;-75
2023/10/30 01:15:55;;;;;;;5.35;2.25;;;;;;;-146.27;78.65;83207.88;5030007;28;20018;-75
2023/10/30 01:18:21;;;;;;;7.15;1.35;;;;;;;-146.27;79.02;83238.03;5031352;28;20057;-75
2023/10/30 01:20:49;;;;;;;8.05;1.40;;;;;;;-146.27;78.55;83232.00;5035614;28;20170;-74
2023/10/30 01:23:15;;;;;;;9.80;2.47;;;;;;;-146.27;78.38;83183.78;5037147;28;20025;-75
2023/10/30 01:25:40;;;;;;;11.68;1.67;;;;;;;-146.27;77.89;83127.50;5028394;28;20537;-73
2023/10/30 01:28:06;;;;;;;4.72;1.40;;;;;;;-146.27;77.69;83139.56;5038660;28;20465;-74
2023/10/30 01:30:31;;;;;;;5.93;1.73;;;;;;;-146.27;78.46;83169.69;5027364;28;20501;-75
2023/10/30 01:32:56;;;;;;;8.77;1.50;;;;;;;-146.27;78.17;83163.69;5019893;28;20049;-75
2023/10/30 01:35:22;;;;;;;6.97;1.83;;;;;;;-146.27;78.39;83177.75;5026370;28;20052;-74
2023/10/30 01:37:47;;;;;;;7.47;1.75;;;;;;;-146.27;78.59;83167.69;5022471;28;20030;-74
2023/10/30 01:40:14;;;;;;;9.57;1.63;;;;;;;-146.27;78.64;83211.91;5024390;28;20032;-74
2023/10/30 01:42:40;;;;;;;4.90;1.13;;;;;;;-146.27;78.35;83155.63;5018126;28;20482;-74
2023/10/30 01:45:06;;;;;;;6.90;1.10;;;;;;;-146.27;78.27;83260.13;5028300;28;20062;-74
2023/10/30 01:47:31;;;;;;;7.65;1.85;;;;;;;-146.27;78.44;83171.72;5029820;28;20056;-74
2023/10/30 01:49:58;;;;;;;11.00;1.52;;;;;;;-146.27;78.31;83147.59;5025847;28;20017;-74
2023/10/30 01:52:26;;;;;;;7.88;1.75;;;;;;;-146.27;78.53;83165.69;5018329;28;20383;-74
2023/10/30 01:54:52;;;;;;;5.95;1.25;;;;;;;-146.27;78.71;83181.75;5021053;28;20411;-74
2023/10/30 01:57:20;;;;;;;4.90;1.10;;;;;;;-146.27;79.04;83197.84;5023378;28;20547;-75
2023/10/30 01:59:46;;;;;;;6.38;1.38;;;;;;;-146.27;79.38;83163.69;5023794;28;20036;-74
2023/10/30 02:02:11;;;;;;;13.07;1.70;;;;;;;-146.27;80.31;83278.19;5026419;28;20444;-74
2023/10/30 02:04:37;;;;;;;9.25;1.40;;;;;;;-146.27;80.00;83242.03;5029383;28;20021;-74
2023/10/30 02:07:03;;;;;;;10.23;1.90;;;;;;;-146.27;80.16;83240.03;5026978;28;20033;-74
2023/10/30 02:09:30;;;;;;;7.90;1.90;;;;;;;-146.27;80.29;83234.00;5013922;28;20111;-75
2023/10/30 02:11:57;;;;;;;5.68;1.45;;;;;;;-146.27;80.06;83242.03;5019237;28;20032;-75
2023/10/30 02:14:22;;;;;;;10.32;1.65;;;;;;;-146.27;79.83;83211.91;5015928;28;20034;-74
2023/10/30 02:16:47;;;;;;;17.35;1.80;;;;;;;-146.27;80.63;83254.09;5026863;28;20060;-75
2023/10/30 02:19:21;;;;;;;9.95;1.30;;;;;;;-146.27;80.77;83244.03;5035062;28;20025;-74
2023/10/30 02:21:46;;;;;;;7.43;1.88;;;;;;;-146.27;81.23;83296.28;5023602;28;20076;-74
2023/10/30 02:24:12;;;;;;;3.47;1.23;;;;;;;-146.27;80.37;83244.03;5036456;28;20064;-75
2023/10/30 02:26:37;;;;;;;7.00;1.50;;;;;;;-146.27;80.59;83248.06;5033376;28;20106;-74
2023/10/30 02:29:04;;;;;;;11.85;1.30;;;;;;;-146.27;80.71;83246.06;5029028;28;20030;-75
2023/10/30 02:31:30;;;;;;;4.32;1.15;;;;;;;-146.27;80.58;83268.16;5026996;28;20036;-75
2023/10/30 02:33:55;;;;;;;12.32;1.88;;;;;;;-146.27;80.54;83244.03;5030042;28;20029;-75
2023/10/30 02:36:21;;;;;;;7.60;1.40;;;;;;;-146.27;80.80;83282.22;5027428;28;20056;-75
2023/10/30 02:38:46;;;;;;;10.05;1.60;;;;;;;-146.27;80.99;83274.19;5024256;28;20478;-75
2023/10/30 02:41:12;;;;;;;7.43;1.60;;;;;;;-146.27;80.90;83292.28;5024295;28;20033;-75
2023/10/30 02:43:37;;;;;;;12.63;1.88;;;;;;;-146.27;80.23;83260.13;5024223;28;20048;-74
2023/10/30 02:46:05;;;;;;;9.90;1.45;;;;;;;-146.27;80.36;83272.19;5023293;28;20025;-75
2023/10/30 02:48:30;;;;;;;15.68;1.73;;;;;;;-146.27;80.69;83296.28;5021358;28;20029;-74
2023/10/30 02:50:58;;;;;;;9.57;2.50;;;;;;;-146.27;80.23;83232.00;5024452;28;20037;-74
2023/10/30 02:53:23;;;;;;;5.22;1.02;;;;;;;-146.27;80.09;83225.97;5020965;28;20501;-74
2023/10/30 02:55:49;;;;;;;7.60;1.33;;;;;;;-146.27;80.32;83223.94;5016953;28;20017;-74
2023/10/30 02:58:14;;;;;;;11.15;1.75;;;;;;;-146.27;81.12;83300.31;5028213;28;20048;-74
2023/10/30 03:00:40;;;;;;;11.50;1.23;;;;;;;-146.27;80.61;83256.09;5031141;28;20039;-75
2023/10/30 03:03:05;;;;;;;11.35;1.80;;;;;;;-146.27;80.16;83272.19;5018424;28;20112;-75
2023/10/30 03:05:30;;;;;;;9.13;1.70;;;;;;;-146.27;80.42;83256.09;5024063;28;20034;-74
2023/10/30 03:07:56;;;;;;;13.55;1.92;;;;;;;-146.27;80.04;83232.00;5016417;28;20029;-74
2023/10/30 03:10:22;;;;;;;8.52;1.50;;;;;;;-146.27;80.04;83244.03;5026994;28;20030;-74
2023/10/30 03:12:47;;;;;;;7.75;1.65;;;;;;;-146.27;80.25;83264.13;5034650;28;20418;-74
2023/10/30 03:15:13;;;;;;;6.15;1.73;;;;;;;-146.27;80.40;83256.09;5024488;28;20418;-74
2023/10/30 03:17:38;;;;;;;7.30;1.83;;;;;;;-146.27;80.57;83256.09;5027666;28;20057;-74
2023/10/30 03:20:07;;;;;;;14.32;2.08;;;;;;;-146.27;80.51;83248.06;5029106;28;20029;-72
2023/10/30 03:22:33;;;;;;;8.77;1.55;;;;;;;-146.27;80.84;83262.13;5030524;28;20461;-73
2023/10/30 03:24:58;;;;;;;7.30;1.35;;;;;;;-146.27;80.24;83260.13;5032204;28;20060;-72
2023/10/30 03:27:24;;;;;;;6.30;1.45;;;;;;;-146.27;80.11;83238.03;5033417;28;20033;-73
2023/10/30 03:29:49;;;;;;;12.13;2.20;;;;;;;-146.27;80.41;83244.03;5043574;28;20107;-73
2023/10/30 03:32:15;;;;;;;9.45;1.55;;;;;;;-146.27;79.93;83223.94;5038199;28;20071;-74
2023/10/30 03:34:40;;;;;;;12.60;1.42;;;;;;;-146.27;79.63;83221.94;5028774;28;20091;-72
2023/10/30 03:37:05;;;;;;;9.18;1.77;;;;;;;-146.27;79.30;83211.91;5033048;28;20035;-72
2023/10/30 03:39:31;;;;;;;10.10;1.75;;;;;;;-146.27;79.64;83234.00;5030007;28;20025;-73
2023/10/30 03:41:56;;;;;;;8.88;1.88;;;;;;;-146.27;79.62;83240.03;5028368;28;20127;-72
2023/10/30 03:44:26;;;;;;;6.72;1.70;;;;;;;-146.27;79.36;83232.00;5032789;28;20056;-71
2023/10/30 03:46:51;;;;;;;12.52;2.33;;;;;;;-146.27;79.52;83211.91;5032755;28;20029;-73
2023/10/30 03:49:16;;;;;;;8.27;1.63;;;;;;;-146.27;79.41;83191.81;5032825;28;20052;-73
2023/10/30 03:51:42;;;;;;;9.60;1.50;;;;;;;-146.27;79.48;83223.94;5032684;28;20040;-73
2023/10/30 03:54:08;;;;;;;11.27;1.83;;;;;;;-146.27;79.80;83191.81;5032749;28;20018;-73
2023/10/30 03:56:33;;;;;;;6.03;1.60;;;;;;;-146.27;80.03;83232.00;5030528;28;20052;-73
2023/10/30 03:58:59;;;;;;;10.93;1.60;;;;;;;-146.27;80.52;83268.16;5025807;28;20030;-72
2023/10/30 04:01:24;;;;;;;8.27;1.92;;;;;;;-146.27;81.80;83296.28;5013584;28;20105;-73
2023/10/30 04:03:50;;;;;;;18.88;3.30;;;;;;;-146.27;81.46;83268.16;5024539;28;20474;-72
2023/10/30 04:06:15;;;;;;;8.10;1.73;;;;;;;-146.27;82.14;83314.38;5015023;28;20441;-73
2023/10/30 04:08:40;;;;;;;11.57;1.88;;;;;;;-146.27;82.43;83294.28;5029552;28;20163;-74
2023/10/30 04:11:12;;;;;;;12.65;2.20;;;;;;;-146.27;81.54;83256.09;5028341;28;20041;-71
2023/10/30 04:13:37;;;;;;;12.75;1.75;;;;;;;-146.27;81.41;83250.06;5039269;28;20104;-72
2023/10/30 04:16:03;;;;;;;7.82;1.75;;;;;;;-146.27;81.36;83298.28;5019260;28;20164;-72
2023/10/30 04:18:29;;;;;;;12.18;1.80;;;;;;;-146.27;81.74;83229.97;5038927;28;20553;-72
2023/10/30 04:20:55;;;;;;;10.02;1.58;;;;;;;-146.27;81.77;83258.13;5039870;28;20108;-73
2023/10/30 04:23:21;;;;;;;14.57;1.95;;;;;;;-146.27;81.27;83246.06;5025812;28;20033;-72
2023/10/30 04:25:46;;;;;;;6.93;1.92;;;;;;;-146.27;81.93;83256.09;5020468;28;20098;-72
2023/10/30 04:28:12;;;;;;;9.07;1.48;;;;;;;-146.27;81.86;83292.28;5026249;28;20501;-73
2023/10/30 04:30:37;;;;;;;9.98;1.67;;;;;;;-146.27;81.80;83244.03;5040008;28;20013;-75
2023/10/30 04:33:02;;;;;;;7.35;1.80;;;;;;;-146.27;81.41;83238.03;5031466;28;20401;-75
2023/10/30 04:35:28;;;;;;;12.65;1.92;;;;;;;-146.27;81.21;83248.06;5035485;28;20075;-75
2023/10/30 04:37:53;;;;;;;9.98;1.35;;;;;;;-146.27;81.54;83308.34;5032173;28;20028;-75
2023/10/30 04:40:19;;;;;;;10.63;2.08;;;;;;;-146.27;81.21;83236.00;5026579;28;20052;-74
2023/10/30 04:42:44;;;;;;;10.82;3.25;;;;;;;-146.27;81.94;83302.31;5026551;28;20044;-74
2023/10/30 04:45:10;;;;;;;5.80;1.10;;;;;;;-146.27;81.28;83236.00;5043838;28;20026;-74
2023/10/30 04:47:36;;;;;;;13.48;1.60;;;;;;;-146.27;82.14;83276.19;5031205;28;20057;-74
2023/10/30 04:50:02;;;;;;;7.90;1.48;;;;;;;-146.27;81.99;83288.25;5027876;28;20113;-74
2023/10/30 04:52:27;;;;;;;12.25;1.50;;;;;;;-146.27;81.57;83252.09;5020562;28;20030;-74
2023/10/30 04:54:53;;;;;;;17.80;1.73;;;;;;;-146.27;81.44;83266.16;5038913;28;20078;-74
2023/10/30 04:57:18;;;;;;;14.73;2.55;;;;;;;-146.27;81.45;83248.06;5029756;28;20016;-75
2023/10/30 04:59:43;;;;;;;9.23;1.77;;;;;;;-146.27;82.33;83292.28;5035346;28;20357;-75
2023/10/30 05:02:09;;;;;;;10.57;1.80;;;;;;;-146.27;81.96;83236.00;5026033;28;20026;-75
2023/10/30 05:04:34;;;;;;;7.53;1.63;;;;;;;-146.27;81.78;83244.03;5043563;28;20767;-74
2023/10/30 05:07:00;;;;;;;8.35;1.52;;;;;;;-146.27;82.55;83288.25;5023720;28;20013;-74
2023/10/30 05:09:25;;;;;;;15.35;2.63;;;;;;;-146.27;81.73;83252.09;5010058;28;20030;-75
2023/10/30 05:11:50;;;;;;;7.38;1.73;;;;;;;-146.27;82.00;83284.22;5023368;28;20101;-74
2023/10/30 05:14:16;;;;;;;15.20;1.73;;;;;;;-146.27;82.64;83252.09;5039483;28;20049;-74
2023/10/30 05:16:41;;;;;;;11.95;2.20;;;;;;;-146.27;81.87;83328.44;5026074;28;20076;-74
2023/10/30 05:19:06;;;;;;;5.43;1.38;;;;;;;-146.27;81.73;83232.00;5031280;28;20543;-74
2023/10/30 05:21:32;;;;;;;14.40;2.03;;;;;;;-146.27;81.54;83223.94;5019691;28;20430;-75
2023/10/30 05:23:57;;;;;;;12.25;1.42;;;;;;;-146.27;82.08;83236.00;5027062;28;20029;-74
2023/10/30 05:26:23;;;;;;;13.18;1.70;;;;;;;-146.27;81.25;83207.88;5033032;28;20030;-74
2023/10/30 05:28:48;;;;;;;12.15;1.85;;;;;;;-146.27;81.38;83229.97;5012147;28;20021;-74
2023/10/30 05:31:13;;;;;;;9.15;2.00;;;;;;;-146.27;82.06;83203.88;5021176;28;20041;-74
2023/10/30 05:33:39;;;;;;;10.68;2.13;;;;;;;-146.27;82.10;83215.91;5024576;28;20600;-74
2023/10/30 05:36:04;;;;;;;13.70;1.98;;;;;;;-146.27;82.51;83238.03;5018992;28;20130;-74
2023/10/30 05:38:30;;;;;;;6.78;1.80;;;;;;;-146.27;82.49;83211.91;5017853;28;20036;-74
2023/10/30 05:40:56;;;;;;;11.77;2.08;;;;;;;-146.27;81.81;83197.84;5020240;28;20033;-74
2023/10/30 05:43:21;;;;;;;8.48;1.83;;;;;;;-146.27;83.23;83268.16;5011683;28;20045;-74
2023/10/30 05:45:47;;;;;;;13.00;2.30;;;;;;;-146.27;82.55;83215.91;5012082;28;20034;-74
2023/10/30 05:48:13;;;;;;;6.60;1.80;;;;;;;-146.27;82.28;83219.94;5023589;28;20033;-74
2023/10/30 05:50:38;;;;;;;15.45;2.40;;;;;;;-146.27;82.60;83223.94;5029334;28;20030;-74
2023/10/30 05:53:04;;;;;;;11.13;2.75;;;;;;;-146.27;82.91;83232.00;5014820;28;20155;-74
2023/10/30 05:55:29;;;;;;;12.50;2.13;;;;;;;-146.27;83.40;83272.19;5009321;28;20207;-75
2023/10/30 05:57:55;;;;;;;12.07;2.17;;;;;;;-146.27;84.15;83282.22;5008180;28;20398;-75
2023/10/30 06:00:22;;;;;;;11.25;3.15;;;;;;;-146.27;82.96;83205.88;5009287;28;20033;-75
2023/10/30 06:02:48;;;;;;;14.60;2.03;;;;;;;-146.27;82.90;83240.03;5022428;28;20040;-74
2023/10/30 06:05:14;;;;;;;11.57;1.88;;;;;;;-146.27;83.42;83236.00;5022655;28;20364;-74
2023/10/30 06:07:41;;;;;;;18.17;2.15;;;;;;;-146.27;82.71;83191.81;5016852;28;20449;-75
2023/10/30 06:10:09;;;;;;;8.88;2.00;;;;;;;-146.27;82.55;83205.88;5029521;28;20096;-73
2023/10/30 06:12:34;;;;;;;15.10;1.73;;;;;;;-146.27;82.67;83203.88;5028506;28;20469;-74
2023/10/30 06:15:00;;;;;;;12.40;2.25;;;;;;;-146.27;84.58;83324.41;5029205;28;20082;-73
2023/10/30 06:17:25;;;;;;;13.23;2.17;;;;;;;-146.27;84.32;83236.00;5025593;28;20045;-74
2023/10/30 06:19:50;;;;;;;13.50;2.05;;;;;;;-146.27;84.22;83244.03;5027356;28;20096;-73
2023/10/30 06:22:16;;;;;;;12.15;2.10;;;;;;;-146.27;83.22;83197.84;5025093;28;20485;-73
2023/10/30 06:24:41;;;;;;;14.73;1.95;;;;;;;-146.27;83.45;83203.88;5027410;28;20029;-74
2023/10/30 06:27:07;;;;;;;13.05;2.72;;;;;;;-146.27;83.47;83236.00;5023468;28;20056;-75
2023/10/30 06:29:32;;;;;;;11.95;2.42;;;;;;;-146.27;83.05;83225.97;5027019;28;20528;-74
2023/10/30 06:31:58;;;;;;;15.07;3.15;;;;;;;-146.27;84.10;83264.13;5027654;28;20057;-75
2023/10/30 06:34:23;;;;;;;19.30;2.28;;;;;;;-146.27;84.42;83300.31;5025283;28;20029;-74
2023/10/30 06:36:49;;;;;;;8.43;1.80;;;;;;;-146.27;83.68;83227.97;5027391;28;20059;-73
2023/10/30 06:39:19;;;;;;;10.98;1.92;;;;;;;-146.27;83.22;83189.78;5019834;28;20451;-74
2023/10/30 06:41:45;;;;;;;13.80;2.38;;;;;;;-146.27;83.47;83225.97;5018639;28;20030;-74
2023/10/30 06:44:10;;;;;;;15.80;2.35;;;;;;;-146.27;83.76;83219.94;5017975;28;20500;-75
2023/10/30 06:46:38;;;;;;;12.02;2.10;;;;;;;-146.27;84.32;83248.06;5025630;28;20040;-75
2023/10/30 06:49:04;;;;;;;12.98;2.10;;;;;;;-146.27;83.82;83183.78;5028329;28;20020;-74
2023/10/30 06:51:29;;;;;;;14.82;2.00;;;;;;;-146.27;84.00;83209.88;5033018;28;20029;-72
2023/10/30 06:53:54;;;;;;;12.00;2.28;;;;;;;-146.27;84.23;83211.91;5026620;28;20037;-71
2023/10/30 06:56:20;;;;;;;10.07;2.38;;;;;;;-146.27;84.21;83236.00;5028178;28;20044;-71
2023/10/30 06:58:45;;;;;;;10.95;2.10;;;;;;;-146.27;84.06;83185.78;5024336;28;20038;-71
2023/10/30 07:01:10;;;;;;;11.38;2.08;;;;;;;-146.27;86.48;83292.28;5024329;28;20025;-71
2023/10/30 07:03:36;;;;;;;13.10;2.13;;;;;;;-146.27;85.95;83223.94;5026848;28;20072;-71
2023/10/30 07:06:02;;;;;;;15.88;3.03;;;;;;;-146.27;85.46;83201.84;5024217;28;20045;-70
2023/10/30 07:08:27;;;;;;;13.73;2.40;;;;;;;-146.27;85.14;83183.78;5037301;28;20087;-72
2023/10/30 07:10:53;;;;;;;14.68;2.33;;;;;;;-146.27;85.70;83223.94;5028103;28;20033;-72
2023/10/30 07:13:18;;;;;;;15.80;2.33;;;;;;;-146.27;85.88;83211.91;5033318;28;20478;-71
2023/10/30 07:15:44;;;;;;;12.35;2.20;;;;;;;-146.27;85.04;83149.63;5023509;28;20028;-72
2023/10/30 07:18:09;;;;;;;11.90;2.70;;;;;;;-146.27;84.58;83143.59;5029223;28;20774;-71
2023/10/30 07:20:34;;;;;;;15.10;2.40;;;;;;;-146.27;84.55;83147.59;5029444;28;20053;-71
2023/10/30 07:23:00;;;;;;;12.60;2.55;;;;;;;-146.27;84.26;83147.59;5039258;28;20029;-72
2023/10/30 07:25:25;;;;;;;14.25;2.40;;;;;;;-146.27;84.44;83081.31;5033302;28;20033;-71
2023/10/30 07:27:50;;;;;;;11.18;2.67;;;;;;;-146.27;85.02;83143.59;5027819;28;20478;-72
2023/10/30 07:30:16;;;;;;;21.58;2.60;;;;;;;-146.27;84.92;83107.41;5029899;28;20086;-72
2023/10/30 07:32:43;;;;;;;12.35;3.08;;;;;;;-146.27;84.39;83089.34;5030051;28;20017;-72
2023/10/30 07:35:09;;;;;;;12.68;2.60;;;;;;;-146.27;84.56;83131.53;5029591;28;20108;-71
2023/10/30 07:37:35;;;;;;;14.52;3.17;;;;;;;-146.27;84.80;83119.47;5033317;28;20107;-71
2023/10/30 07:40:01;;;;;;;7.93;2.17;;;;;;;-146.27;84.89;83115.47;5036593;28;20020;-72
2023/10/30 07:42:27;;;;;;;15.63;2.15;;;;;;;-146.27;84.58;83087.31;5030211;28;20524;-72
2023/10/30 07:44:53;;;;;;;11.50;1.88;;;;;;;-146.27;84.77;83073.25;5041369;28;20086;-75
2023/10/30 07:47:18;;;;;;;9.23;1.75;;;;;;;-146.27;85.00;83079.28;5028874;28;20072;-76
2023/10/30 07:49:43;;;;;;;12.85;2.75;;;;;;;-146.27;85.01;83145.59;5025093;28;20067;-75
2023/10/30 07:52:08;;;;;;;17.65;2.53;;;;;;;-146.27;85.72;83123.50;5017483;28;20025;-75
2023/10/30 07:54:34;;;;;;;8.30;2.08;;;;;;;-146.27;84.87;83079.28;5026918;28;20041;-75
2023/10/30 07:56:59;;;;;;;11.63;2.40;;;;;;;-146.27;85.18;83089.34;5027223;28;20110;-75
2023/10/30 07:59:25;;;;;;;13.80;2.22;;;;;;;-146.27;85.59;83123.50;5042767;28;20469;-75
2023/10/30 08:01:51;;;;;;;14.18;2.20;;;;;;;-146.27;84.77;83073.25;5030560;28;20029;-76
2023/10/30 08:04:16;;;;;;;16.08;2.20;;;;;;;-146.27;84.80;83073.25;5032860;28;20034;-76
2023/10/30 08:06:41;;;;;;;13.00;2.13;;;;;;;-146.27;84.56;82998.94;5032726;28;20029;-76
2023/10/30 08:09:08;;;;;;;12.00;2.92;;;;;;;-146.27;84.61;83043.13;5023564;28;20052;-76
2023/10/30 08:11:34;;;;;;;15.55;2.83;;;;;;;-146.27;84.92;83027.06;5038380;28;20528;-74
2023/10/30 08:14:00;;;;;;;17.00;2.58;;;;;;;-146.27;85.14;83073.25;5032526;28;20021;-73
2023/10/30 08:16:25;;;;;;;20.20;2.30;;;;;;;-146.27;84.36;83006.97;5031300;28;20041;-73
2023/10/30 08:18:51;;;;;;;14.23;3.63;;;;;;;-146.27;84.18;82974.81;5023238;28;20113;-73
2023/10/30 08:21:16;;;;;;;14.63;3.10;;;;;;;-146.27;83.58;82970.81;5030410;28;20025;-73
2023/10/30 08:23:42;;;;;;;11.02;2.65;;;;;;;-146.27;83.82;82976.81;5026357;28;20044;-73
2023/10/30 08:26:07;;;;;;;7.70;2.08;;;;;;;-146.27;84.06;83004.94;5031986;28;20034;-72
2023/10/30 08:28:33;;;;;;;6.90;1.95;;;;;;;-146.27;84.45;83023.03;5027390;28;20029;-73
2023/10/30 08:30:59;;;;;;;26.25;2.75;;;;;;;-146.27;84.49;83006.97;5013318;28;20525;-72
2023/10/30 08:33:24;;;;;;;12.38;1.67;;;;;;;-146.27;83.89;82954.72;5016429;28;20033;-73
2023/10/30 08:35:49;;;;;;;15.25;2.63;;;;;;;-146.27;84.05;82994.91;5025351;28;20049;-73
2023/10/30 08:38:15;;;;;;;5.75;1.45;;;;;;;-146.27;84.15;82998.94;5029144;28;20116;-73
2023/10/30 08:40:40;;;;;;;10.30;2.75;;;;;;;-146.27;85.25;83041.13;5030274;28;20033;-73
2023/10/30 08:43:06;;;;;;;10.20;2.00;;;;;;;-146.27;84.23;82978.84;5031102;28;20033;-73
2023/10/30 08:45:31;;;;;;;11.63;2.28;;;;;;;-146.27;84.76;83031.06;5028829;28;20493;-73
2023/10/30 08:47:56;;;;;;;12.02;1.73;;;;;;;-146.27;84.08;83002.94;5030449;28;20058;-73
2023/10/30 08:50:22;;;;;;;15.40;2.03;;;;;;;-146.27;84.94;83015.00;5036375;28;20141;-72
2023/10/30 08:52:47;;;;;;;10.80;1.92;;;;;;;-146.27;84.51;83035.09;5031102;28;20033;-73
2023/10/30 08:55:12;;;;;;;10.57;2.13;;;;;;;-146.27;84.57;83000.94;5021398;28;20030;-75
2023/10/30 08:57:38;;;;;;;11.13;1.95;;;;;;;-146.27;84.08;82990.88;5038740;28;20028;-75
2023/10/30 09:00:07;;;;;;;18.90;2.13;;;;;;;-146.27;83.96;82984.88;5030565;28;20032;-75
2023/10/30 09:02:35;;;;;;;9.52;1.90;;;;;;;-146.27;83.42;82938.66;5031525;28;20037;-74
2023/10/30 09:05:00;;;;;;;11.50;1.67;;;;;;;-146.27;83.06;82914.53;5030813;28;20113;-74
2023/10/30 09:07:26;;;;;;;10.07;2.35;;;;;;;-146.27;83.34;82946.69;5031654;28;20056;-74
2023/10/30 09:09:51;;;;;;;8.90;2.60;;;;;;;-146.27;83.66;82970.81;5031126;28;20048;-76
2023/10/30 09:12:17;;;;;;;10.45;1.83;;;;;;;-146.27;84.67;83023.03;5030869;28;20030;-77
2023/10/30 09:14:42;;;;;;;16.80;2.20;;;;;;;-146.27;83.74;82924.59;5030947;28;20022;-77
2023/10/30 09:17:08;;;;;;;9.88;2.25;;;;;;;-146.27;83.84;82800.03;5030183;28;20076;-76
2023/10/30 09:19:35;;;;;;;17.75;2.22;;;;;;;-146.27;83.93;82948.69;5031065;28;20128;-76
2023/10/30 09:22:00;;;;;;;16.70;2.08;;;;;;;-146.27;83.58;82932.63;5031711;28;20079;-76
2023/10/30 09:24:26;;;;;;;11.20;1.67;;;;;;;-146.27;82.45;82862.31;5030246;28;20041;-77
2023/10/30 09:26:52;;;;;;;12.50;1.77;;;;;;;-146.27;82.44;82874.38;5031465;28;20432;-76
2023/10/30 09:29:17;;;;;;;10.95;2.28;;;;;;;-146.27;82.22;82862.31;5030314;28;20033;-79
2023/10/30 09:31:44;;;;;;;13.18;1.95;;;;;;;-146.27;82.16;82838.19;5044782;28;20049;-77
2023/10/30 09:34:10;;;;;;;13.73;2.10;;;;;;;-146.27;81.85;82771.91;5043008;28;20186;-73
2023/10/30 09:36:35;;;;;;;18.15;2.45;;;;;;;-146.27;81.34;82753.81;5026145;28;20029;-73
2023/10/30 09:39:01;;;;;;;15.80;2.08;;;;;;;-146.27;80.76;82729.72;5024632;28;20031;-75
2023/10/30 09:41:28;;;;;;;10.70;2.63;;;;;;;-146.27;80.74;82737.75;5022263;28;20385;-74
2023/10/30 09:43:53;;;;;;;8.50;1.40;;;;;;;-146.27;80.36;82741.78;5042746;28;20021;-73
2023/10/30 09:46:25;;;;;;;16.55;2.80;;;;;;;-146.27;80.35;82713.66;5035389;28;20052;-75
2023/10/30 09:48:52;;;;;;;12.18;1.98;;;;;;;-146.27;80.34;82725.69;5025788;28;20481;-75
2023/10/30 09:51:19;;;;;;;19.00;1.80;;;;;;;-146.27;81.60;82832.19;5039677;28;20021;-75
2023/10/30 09:53:46;;;;;;;16.52;3.35;;;;;;;-146.27;81.43;82796.00;5035825;28;20032;-75
2023/10/30 09:56:14;;;;;;;14.63;2.22;;;;;;;-146.27;81.20;82769.91;5030107;28;20033;-75
2023/10/30 09:58:40;;;;;;;8.65;2.10;;;;;;;-146.27;81.22;82785.97;5033112;28;20024;-76
2023/10/30 10:01:05;;;;;;;12.60;2.60;;;;;;;-146.27;81.22;82705.59;5041229;28;20038;-76
2023/10/30 10:03:31;;;;;;;15.38;2.67;;;;;;;-146.27;81.03;82771.91;5026049;28;20029;-78
2023/10/30 10:05:58;;;;;;;9.60;2.42;;;;;;;-146.27;81.14;82810.06;5047466;28;20017;-75
2023/10/30 10:08:24;;;;;;;5.72;1.95;;;;;;;-146.27;80.51;82709.63;5045780;28;20025;-75
2023/10/30 10:11:00;;;;;;;12.20;2.33;;;;;;;-146.27;80.45;82717.66;5034683;28;20034;-74
2023/10/30 10:13:27;;;;;;;6.75;2.53;;;;;;;-146.27;80.33;82713.66;5043008;28;20040;-75
2023/10/30 10:15:53;;;;;;;17.52;2.70;;;;;;;-146.27;80.34;82717.66;5050185;28;20017;-75
2023/10/30 10:18:32;;;;;;;16.15;2.28;;;;;;;-146.27;80.50;82705.59;5046511;28;20138;-74
2023/10/30 10:21:01;;;;;;;11.02;3.47;;;;;;;-146.27;79.93;82701.59;5050583;28;20020;-73
2023/10/30 10:23:31;;;;;;;13.25;2.55;;;;;;;-146.27;79.94;82661.41;5030890;28;20111;-74
2023/10/30 10:25:58;;;;;;;11.50;2.58;;;;;;;-146.27;79.90;82693.56;5041579;28;20025;-75
2023/10/30 10:28:25;;;;;;;10.88;2.55;;;;;;;-146.27;79.88;82707.63;5050384;28;20583;-76
2023/10/30 10:30:53;;;;;;;21.85;2.63;;;;;;;-146.27;79.53;82693.56;5047043;28;20097;-75
2023/10/30 10:33:21;;;;;;;13.57;2.75;;;;;;;-146.27;79.99;82657.41;5036457;28;20029;-74
2023/10/30 10:36:00;;;;;;;11.10;2.40;;;;;;;-146.27;79.18;82613.19;5037175;28;20044;-74
2023/10/30 10:38:27;;;;;;;14.70;1.95;;;;;;;-146.27;79.01;82573.00;5050114;28;20050;-75
2023/10/30 10:40:53;;;;;;;11.40;2.75;;;;;;;-146.27;77.57;82498.69;5046826;28;20017;-75
2023/10/30 10:43:19;;;;;;;9.32;2.40;;;;;;;-146.27;76.33;82472.56;5047071;28;20029;-75
2023/10/30 10:45:52;;;;;;;16.00;4.03;;;;;;;-146.27;76.92;82474.59;5047412;28;20063;-77
2023/10/30 10:48:18;;;;;;;12.25;2.30;;;;;;;-146.27;76.82;82502.72;5038998;28;20057;-75
2023/10/30 10:50:44;;;;;;;12.57;2.65;;;;;;;-146.27;77.12;82589.09;5030343;28;20516;-75
2023/10/30 10:53:11;;;;;;;15.00;2.80;;;;;;;-146.27;77.08;82552.94;5029704;28;20033;-73
2023/10/30 10:55:47;;;;;;;14.57;2.05;;;;;;;-146.27;77.05;82554.94;5039122;28;20078;-75
2023/10/30 10:58:43;;;;;;;10.60;2.42;;;;;;;-146.27;77.84;82615.22;5049967;28;20036;-74
2023/10/30 11:01:16;;;;;;;15.07;2.63;;;;;;;-146.27;78.95;82633.28;5047243;28;20021;-75
2023/10/30 11:03:43;;;;;;;14.00;2.20;;;;;;;-146.27;78.92;82645.34;5035227;28;20083;-74
2023/10/30 11:06:09;;;;;;;26.27;3.47;;;;;;;-146.27;78.92;82641.31;5019971;28;20031;-76